sensor_id;sensor_type;location;lat;lon;timestamp;temperature;humidity
8664;DHT22;4369;47.842;13.096;2023-04-03T00:01:50;3.90;99.90
8664;DHT22;4369;47.842;13.096;2023-04-03T00:04:17;3.90;99.90
8664;DHT22;4369;47.842;13.096;2023-04-03T00:06:44;4.00;99.90
8664;DHT22;4369;47.842;13.096;2023-04-03T00:09:12;3.90;99.90
8664;DHT22;4369;47.842;13.096;2023-04-03T00:11:39;3.90;99.90
8664;DHT22;4369;47.842;13.096;2023-04-03T00:14:07;3.90;99.90
8664;DHT22;4369;47.842;13.096;2023-04-03T00:16:34;3.90;99.90
8664;DHT22;4369;47.842;13.096;2023-04-03T00:19:00;3.90;99.90
8664;DHT22;4369;47.842;13.096;2023-04-03T00:21:27;4.00;99.90
8664;DHT22;4369;47.842;13.096;2023-04-03T00:23:54;4.00;99.90
8664;DHT22;4369;47.842;13.096;2023-04-03T00:26:21;3.90;99.90
8664;DHT22;4369;47.842;13.096;2023-04-03T00:28:48;3.90;99.90
8664;DHT22;4369;47.842;13.096;2023-04-03T00:31:17;3.80;99.90
8664;DHT22;4369;47.842;13.096;2023-04-03T00:33:44;3.80;99.90
8664;DHT22;4369;47.842;13.096;2023-04-03T00:36:11;3.80;99.90
8664;DHT22;4369;47.842;13.096;2023-04-03T00:38:39;3.90;99.90
8664;DHT22;4369;47.842;13.096;2023-04-03T00:41:06;3.90;99.90
8664;DHT22;4369;47.842;13.096;2023-04-03T00:43:33;3.90;99.90
8664;DHT22;4369;47.842;13.096;2023-04-03T00:46:00;3.80;99.90
8664;DHT22;4369;47.842;13.096;2023-04-03T00:48:31;3.90;99.90
8664;DHT22;4369;47.842;13.096;2023-04-03T00:50:59;3.90;99.90
8664;DHT22;4369;47.842;13.096;2023-04-03T00:53:31;3.90;99.90
8664;DHT22;4369;47.842;13.096;2023-04-03T00:55:59;3.90;99.90
8664;DHT22;4369;47.842;13.096;2023-04-03T00:58:32;4.00;99.90
8664;DHT22;4369;47.842;13.096;2023-04-03T01:01:05;4.00;99.90
8664;DHT22;4369;47.842;13.096;2023-04-03T01:03:34;4.10;99.90
8664;DHT22;4369;47.842;13.096;2023-04-03T01:06:01;4.00;99.90
8664;DHT22;4369;47.842;13.096;2023-04-03T01:08:29;4.10;99.90
8664;DHT22;4369;47.842;13.096;2023-04-03T01:10:56;4.10;99.90
8664;DHT22;4369;47.842;13.096;2023-04-03T01:13:25;4.20;99.90
8664;DHT22;4369;47.842;13.096;2023-04-03T01:15:52;4.30;99.90
8664;DHT22;4369;47.842;13.096;2023-04-03T01:18:20;4.10;99.90
8664;DHT22;4369;47.842;13.096;2023-04-03T01:24:02;4.10;99.90
8664;DHT22;4369;47.842;13.096;2023-04-03T01:26:32;4.10;99.90
8664;DHT22;4369;47.842;13.096;2023-04-03T01:28:59;3.90;99.90
8664;DHT22;4369;47.842;13.096;2023-04-03T01:31:29;3.90;99.90
8664;DHT22;4369;47.842;13.096;2023-04-03T01:33:59;3.90;99.90
8664;DHT22;4369;47.842;13.096;2023-04-03T01:36:27;3.90;99.90
8664;DHT22;4369;47.842;13.096;2023-04-03T01:38:56;3.80;99.90
8664;DHT22;4369;47.842;13.096;2023-04-03T01:41:24;3.80;99.90
8664;DHT22;4369;47.842;13.096;2023-04-03T01:43:51;3.90;99.90
8664;DHT22;4369;47.842;13.096;2023-04-03T01:46:19;3.90;99.90
8664;DHT22;4369;47.842;13.096;2023-04-03T01:48:46;4.00;99.90
8664;DHT22;4369;47.842;13.096;2023-04-03T01:51:15;4.00;99.90
8664;DHT22;4369;47.842;13.096;2023-04-03T01:53:42;4.00;99.90
8664;DHT22;4369;47.842;13.096;2023-04-03T01:56:08;4.10;99.90
8664;DHT22;4369;47.842;13.096;2023-04-03T01:58:35;4.00;99.90
8664;DHT22;4369;47.842;13.096;2023-04-03T02:01:02;4.10;99.90
8664;DHT22;4369;47.842;13.096;2023-04-03T02:03:30;4.10;99.90
8664;DHT22;4369;47.842;13.096;2023-04-03T02:05:58;4.10;99.90
8664;DHT22;4369;47.842;13.096;2023-04-03T02:08:26;4.20;99.90
8664;DHT22;4369;47.842;13.096;2023-04-03T02:10:53;4.10;99.90
8664;DHT22;4369;47.842;13.096;2023-04-03T02:13:20;4.20;99.90
8664;DHT22;4369;47.842;13.096;2023-04-03T02:15:47;4.20;99.90
8664;DHT22;4369;47.842;13.096;2023-04-03T02:18:14;4.10;99.90
8664;DHT22;4369;47.842;13.096;2023-04-03T02:20:41;4.20;99.90
8664;DHT22;4369;47.842;13.096;2023-04-03T02:23:08;4.20;99.90
8664;DHT22;4369;47.842;13.096;2023-04-03T02:25:37;4.20;99.90
8664;DHT22;4369;47.842;13.096;2023-04-03T02:28:04;4.10;99.90
8664;DHT22;4369;47.842;13.096;2023-04-03T02:30:31;4.10;99.90
8664;DHT22;4369;47.842;13.096;2023-04-03T02:32:58;4.20;99.90
8664;DHT22;4369;47.842;13.096;2023-04-03T02:35:24;4.20;99.90
8664;DHT22;4369;47.842;13.096;2023-04-03T02:37:51;4.20;99.90
8664;DHT22;4369;47.842;13.096;2023-04-03T02:40:18;4.20;99.90
8664;DHT22;4369;47.842;13.096;2023-04-03T02:42:47;4.30;99.90
8664;DHT22;4369;47.842;13.096;2023-04-03T02:45:14;4.30;99.90
8664;DHT22;4369;47.842;13.096;2023-04-03T02:47:41;4.20;99.90
8664;DHT22;4369;47.842;13.096;2023-04-03T02:50:08;4.30;99.90
8664;DHT22;4369;47.842;13.096;2023-04-03T02:52:35;4.10;99.90
8664;DHT22;4369;47.842;13.096;2023-04-03T02:55:02;4.10;99.90
8664;DHT22;4369;47.842;13.096;2023-04-03T02:57:29;4.10;99.90
8664;DHT22;4369;47.842;13.096;2023-04-03T02:59:57;4.10;99.90
8664;DHT22;4369;47.842;13.096;2023-04-03T03:02:24;4.10;99.90
8664;DHT22;4369;47.842;13.096;2023-04-03T03:04:51;4.00;99.90
8664;DHT22;4369;47.842;13.096;2023-04-03T03:07:17;4.10;99.90
8664;DHT22;4369;47.842;13.096;2023-04-03T03:09:44;4.10;99.90
8664;DHT22;4369;47.842;13.096;2023-04-03T03:12:11;4.10;99.90
8664;DHT22;4369;47.842;13.096;2023-04-03T03:14:38;4.10;99.90
8664;DHT22;4369;47.842;13.096;2023-04-03T03:17:07;4.20;99.90
8664;DHT22;4369;47.842;13.096;2023-04-03T03:19:34;4.10;99.90
8664;DHT22;4369;47.842;13.096;2023-04-03T03:22:01;4.10;99.90
8664;DHT22;4369;47.842;13.096;2023-04-03T03:24:27;4.10;99.90
8664;DHT22;4369;47.842;13.096;2023-04-03T03:26:55;4.00;99.90
8664;DHT22;4369;47.842;13.096;2023-04-03T03:29:22;3.90;99.90
8664;DHT22;4369;47.842;13.096;2023-04-03T03:31:48;3.90;99.90
8664;DHT22;4369;47.842;13.096;2023-04-03T03:34:17;3.80;99.90
8664;DHT22;4369;47.842;13.096;2023-04-03T03:36:44;3.70;99.90
8664;DHT22;4369;47.842;13.096;2023-04-03T03:39:11;3.70;99.90
8664;DHT22;4369;47.842;13.096;2023-04-03T03:41:38;3.80;99.90
8664;DHT22;4369;47.842;13.096;2023-04-03T03:44:04;3.80;99.90
8664;DHT22;4369;47.842;13.096;2023-04-03T03:46:31;3.80;99.90
8664;DHT22;4369;47.842;13.096;2023-04-03T03:48:58;3.80;99.90
8664;DHT22;4369;47.842;13.096;2023-04-03T03:51:27;3.80;99.90
8664;DHT22;4369;47.842;13.096;2023-04-03T03:53:54;3.80;99.90
8664;DHT22;4369;47.842;13.096;2023-04-03T03:56:20;3.80;99.90
8664;DHT22;4369;47.842;13.096;2023-04-03T03:58:47;3.80;99.90
8664;DHT22;4369;47.842;13.096;2023-04-03T04:01:15;3.80;99.90
8664;DHT22;4369;47.842;13.096;2023-04-03T04:03:42;3.90;99.90
8664;DHT22;4369;47.842;13.096;2023-04-03T04:06:09;3.90;99.90
8664;DHT22;4369;47.842;13.096;2023-04-03T04:08:37;3.90;99.90
8664;DHT22;4369;47.842;13.096;2023-04-03T04:11:04;3.90;99.90
8664;DHT22;4369;47.842;13.096;2023-04-03T04:13:31;3.90;99.90
8664;DHT22;4369;47.842;13.096;2023-04-03T04:15:58;4.00;99.90
8664;DHT22;4369;47.842;13.096;2023-04-03T04:18:24;4.10;99.90
8664;DHT22;4369;47.842;13.096;2023-04-03T04:20:52;4.10;99.90
8664;DHT22;4369;47.842;13.096;2023-04-03T04:23:18;4.20;99.90
8664;DHT22;4369;47.842;13.096;2023-04-03T04:25:47;4.20;99.90
8664;DHT22;4369;47.842;13.096;2023-04-03T04:28:14;4.20;99.90
8664;DHT22;4369;47.842;13.096;2023-04-03T04:30:41;4.20;99.90
8664;DHT22;4369;47.842;13.096;2023-04-03T04:33:08;4.10;99.90
8664;DHT22;4369;47.842;13.096;2023-04-03T04:35:35;4.10;99.90
8664;DHT22;4369;47.842;13.096;2023-04-03T04:38:02;4.00;99.90
8664;DHT22;4369;47.842;13.096;2023-04-03T04:40:29;4.00;99.90
8664;DHT22;4369;47.842;13.096;2023-04-03T04:42:57;4.00;99.90
8664;DHT22;4369;47.842;13.096;2023-04-03T04:45:24;3.90;99.90
8664;DHT22;4369;47.842;13.096;2023-04-03T04:47:51;3.90;99.90
8664;DHT22;4369;47.842;13.096;2023-04-03T04:50:18;3.90;99.90
8664;DHT22;4369;47.842;13.096;2023-04-03T04:52:45;3.90;99.90
8664;DHT22;4369;47.842;13.096;2023-04-03T04:55:12;4.00;99.90
8664;DHT22;4369;47.842;13.096;2023-04-03T04:57:39;4.10;99.90
8664;DHT22;4369;47.842;13.096;2023-04-03T05:00:08;4.00;99.90
8664;DHT22;4369;47.842;13.096;2023-04-03T05:02:35;4.00;99.90
8664;DHT22;4369;47.842;13.096;2023-04-03T05:05:02;4.00;99.90
8664;DHT22;4369;47.842;13.096;2023-04-03T05:07:29;4.00;99.90
8664;DHT22;4369;47.842;13.096;2023-04-03T05:09:56;4.10;99.90
8664;DHT22;4369;47.842;13.096;2023-04-03T05:12:23;4.10;99.90
8664;DHT22;4369;47.842;13.096;2023-04-03T05:14:50;4.20;99.90
8664;DHT22;4369;47.842;13.096;2023-04-03T05:17:18;4.20;99.90
8664;DHT22;4369;47.842;13.096;2023-04-03T05:19:45;4.10;99.90
8664;DHT22;4369;47.842;13.096;2023-04-03T05:22:12;4.10;99.90
8664;DHT22;4369;47.842;13.096;2023-04-03T05:24:39;4.10;99.90
8664;DHT22;4369;47.842;13.096;2023-04-03T05:27:06;4.20;99.90
8664;DHT22;4369;47.842;13.096;2023-04-03T05:29:33;4.20;99.90
8664;DHT22;4369;47.842;13.096;2023-04-03T05:32:00;4.20;99.90
8664;DHT22;4369;47.842;13.096;2023-04-03T05:34:28;4.20;99.90
8664;DHT22;4369;47.842;13.096;2023-04-03T05:36:54;4.30;99.90
8664;DHT22;4369;47.842;13.096;2023-04-03T05:39:21;4.20;99.90
8664;DHT22;4369;47.842;13.096;2023-04-03T05:41:49;4.30;99.90
8664;DHT22;4369;47.842;13.096;2023-04-03T05:44:16;4.20;99.90
8664;DHT22;4369;47.842;13.096;2023-04-03T05:46:43;4.30;99.90
8664;DHT22;4369;47.842;13.096;2023-04-03T05:49:10;4.40;99.90
8664;DHT22;4369;47.842;13.096;2023-04-03T05:51:38;4.40;99.90
8664;DHT22;4369;47.842;13.096;2023-04-03T05:54:10;4.40;99.90
8664;DHT22;4369;47.842;13.096;2023-04-03T05:56:39;4.50;99.90
8664;DHT22;4369;47.842;13.096;2023-04-03T05:59:06;4.60;99.90
8664;DHT22;4369;47.842;13.096;2023-04-03T06:01:33;4.60;99.90
8664;DHT22;4369;47.842;13.096;2023-04-03T06:04:00;4.60;99.90
8664;DHT22;4369;47.842;13.096;2023-04-03T06:06:46;4.50;99.90
8664;DHT22;4369;47.842;13.096;2023-04-03T06:09:13;4.60;99.90
8664;DHT22;4369;47.842;13.096;2023-04-03T06:11:41;4.60;99.90
8664;DHT22;4369;47.842;13.096;2023-04-03T06:14:09;4.60;99.90
8664;DHT22;4369;47.842;13.096;2023-04-03T06:16:36;4.60;99.90
8664;DHT22;4369;47.842;13.096;2023-04-03T06:19:03;4.60;99.90
8664;DHT22;4369;47.842;13.096;2023-04-03T06:21:31;4.70;99.90
8664;DHT22;4369;47.842;13.096;2023-04-03T06:23:59;4.70;99.90
8664;DHT22;4369;47.842;13.096;2023-04-03T06:26:27;4.70;99.90
8664;DHT22;4369;47.842;13.096;2023-04-03T06:28:54;4.80;99.90
8664;DHT22;4369;47.842;13.096;2023-04-03T06:31:21;4.80;99.90
8664;DHT22;4369;47.842;13.096;2023-04-03T06:33:48;5.00;99.90
8664;DHT22;4369;47.842;13.096;2023-04-03T06:36:15;4.90;99.90
8664;DHT22;4369;47.842;13.096;2023-04-03T06:38:45;4.90;99.90
8664;DHT22;4369;47.842;13.096;2023-04-03T06:41:15;5.00;99.90
8664;DHT22;4369;47.842;13.096;2023-04-03T06:43:42;5.10;99.90
8664;DHT22;4369;47.842;13.096;2023-04-03T06:46:14;5.10;99.90
8664;DHT22;4369;47.842;13.096;2023-04-03T06:48:42;5.10;99.90
8664;DHT22;4369;47.842;13.096;2023-04-03T06:51:16;5.10;99.90
8664;DHT22;4369;47.842;13.096;2023-04-03T06:53:44;5.10;99.90
8664;DHT22;4369;47.842;13.096;2023-04-03T06:56:11;5.30;99.90
8664;DHT22;4369;47.842;13.096;2023-04-03T06:58:40;5.20;99.90
8664;DHT22;4369;47.842;13.096;2023-04-03T07:01:07;5.30;99.90
8664;DHT22;4369;47.842;13.096;2023-04-03T07:03:35;5.20;99.90
8664;DHT22;4369;47.842;13.096;2023-04-03T07:06:02;5.30;99.90
8664;DHT22;4369;47.842;13.096;2023-04-03T07:08:29;5.30;99.90
8664;DHT22;4369;47.842;13.096;2023-04-03T07:10:56;5.40;99.90
8664;DHT22;4369;47.842;13.096;2023-04-03T07:13:23;5.50;99.90
8664;DHT22;4369;47.842;13.096;2023-04-03T07:15:51;5.40;99.90
8664;DHT22;4369;47.842;13.096;2023-04-03T07:18:18;5.30;99.90
8664;DHT22;4369;47.842;13.096;2023-04-03T07:20:45;5.40;99.90
8664;DHT22;4369;47.842;13.096;2023-04-03T07:23:12;5.40;99.90
8664;DHT22;4369;47.842;13.096;2023-04-03T07:25:42;5.40;99.90
8664;DHT22;4369;47.842;13.096;2023-04-03T07:28:09;5.50;99.90
8664;DHT22;4369;47.842;13.096;2023-04-03T07:30:42;5.50;99.90
8664;DHT22;4369;47.842;13.096;2023-04-03T07:33:10;5.60;99.90
8664;DHT22;4369;47.842;13.096;2023-04-03T07:35:38;5.50;99.90
8664;DHT22;4369;47.842;13.096;2023-04-03T07:38:06;5.60;99.90
8664;DHT22;4369;47.842;13.096;2023-04-03T07:40:33;5.60;99.90
8664;DHT22;4369;47.842;13.096;2023-04-03T07:43:02;5.70;99.90
8664;DHT22;4369;47.842;13.096;2023-04-03T07:45:29;5.60;99.90
8664;DHT22;4369;47.842;13.096;2023-04-03T07:47:56;5.60;99.90
8664;DHT22;4369;47.842;13.096;2023-04-03T07:50:25;5.80;99.90
8664;DHT22;4369;47.842;13.096;2023-04-03T07:52:52;5.90;99.90
8664;DHT22;4369;47.842;13.096;2023-04-03T07:55:20;6.00;99.90
8664;DHT22;4369;47.842;13.096;2023-04-03T07:57:47;6.00;99.90
8664;DHT22;4369;47.842;13.096;2023-04-03T08:00:14;6.00;99.90
8664;DHT22;4369;47.842;13.096;2023-04-03T08:02:43;6.20;99.90
8664;DHT22;4369;47.842;13.096;2023-04-03T08:05:10;6.30;99.90
8664;DHT22;4369;47.842;13.096;2023-04-03T08:07:40;6.40;99.90
8664;DHT22;4369;47.842;13.096;2023-04-03T08:10:07;6.60;99.90
8664;DHT22;4369;47.842;13.096;2023-04-03T08:12:34;6.70;99.90
8664;DHT22;4369;47.842;13.096;2023-04-03T08:15:03;6.80;99.90
8664;DHT22;4369;47.842;13.096;2023-04-03T08:17:30;6.60;99.90
8664;DHT22;4369;47.842;13.096;2023-04-03T08:19:57;6.50;99.90
8664;DHT22;4369;47.842;13.096;2023-04-03T08:22:23;6.50;99.90
8664;DHT22;4369;47.842;13.096;2023-04-03T08:24:52;6.60;99.90
8664;DHT22;4369;47.842;13.096;2023-04-03T08:27:21;6.50;99.90
8664;DHT22;4369;47.842;13.096;2023-04-03T08:29:48;6.60;99.90
8664;DHT22;4369;47.842;13.096;2023-04-03T08:32:15;6.50;99.90
8664;DHT22;4369;47.842;13.096;2023-04-03T08:34:42;6.70;99.90
8664;DHT22;4369;47.842;13.096;2023-04-03T08:37:09;7.00;99.90
8664;DHT22;4369;47.842;13.096;2023-04-03T08:39:36;7.10;99.90
8664;DHT22;4369;47.842;13.096;2023-04-03T08:42:14;7.20;99.90
8664;DHT22;4369;47.842;13.096;2023-04-03T08:44:46;7.20;99.90
8664;DHT22;4369;47.842;13.096;2023-04-03T08:47:22;7.10;99.90
8664;DHT22;4369;47.842;13.096;2023-04-03T08:49:53;7.20;99.90
8664;DHT22;4369;47.842;13.096;2023-04-03T08:52:27;7.30;99.90
8664;DHT22;4369;47.842;13.096;2023-04-03T08:54:59;7.30;99.90
8664;DHT22;4369;47.842;13.096;2023-04-03T08:57:32;7.20;99.90
8664;DHT22;4369;47.842;13.096;2023-04-03T09:00:03;7.40;99.90
8664;DHT22;4369;47.842;13.096;2023-04-03T09:02:33;7.60;99.90
8664;DHT22;4369;47.842;13.096;2023-04-03T09:05:05;7.80;99.90
8664;DHT22;4369;47.842;13.096;2023-04-03T09:07:38;7.90;99.90
8664;DHT22;4369;47.842;13.096;2023-04-03T09:10:08;8.00;99.90
8664;DHT22;4369;47.842;13.096;2023-04-03T09:12:41;8.20;99.90
8664;DHT22;4369;47.842;13.096;2023-04-03T09:15:17;8.30;99.90
8664;DHT22;4369;47.842;13.096;2023-04-03T09:17:53;8.30;99.90
8664;DHT22;4369;47.842;13.096;2023-04-03T09:20:27;8.50;99.90
8664;DHT22;4369;47.842;13.096;2023-04-03T09:22:56;8.80;99.90
8664;DHT22;4369;47.842;13.096;2023-04-03T09:25:25;8.90;99.90
8664;DHT22;4369;47.842;13.096;2023-04-03T09:27:55;9.00;99.50
8664;DHT22;4369;47.842;13.096;2023-04-03T09:30:25;9.00;99.90
8664;DHT22;4369;47.842;13.096;2023-04-03T09:32:54;8.70;99.30
8664;DHT22;4369;47.842;13.096;2023-04-03T09:35:24;8.50;99.90
8664;DHT22;4369;47.842;13.096;2023-04-03T09:37:53;8.20;99.90
8664;DHT22;4369;47.842;13.096;2023-04-03T09:40:36;7.80;99.90
8664;DHT22;4369;47.842;13.096;2023-04-03T09:43:21;7.70;99.90
8664;DHT22;4369;47.842;13.096;2023-04-03T09:45:50;7.80;99.90
8664;DHT22;4369;47.842;13.096;2023-04-03T09:48:18;8.00;99.90
8664;DHT22;4369;47.842;13.096;2023-04-03T09:50:59;8.00;99.90
8664;DHT22;4369;47.842;13.096;2023-04-03T09:53:33;8.10;99.90
8664;DHT22;4369;47.842;13.096;2023-04-03T09:56:02;8.10;99.90
8664;DHT22;4369;47.842;13.096;2023-04-03T09:58:32;8.10;99.90
8664;DHT22;4369;47.842;13.096;2023-04-03T10:01:00;8.30;99.90
8664;DHT22;4369;47.842;13.096;2023-04-03T10:03:30;8.40;99.90
8664;DHT22;4369;47.842;13.096;2023-04-03T10:05:58;8.30;99.90
8664;DHT22;4369;47.842;13.096;2023-04-03T10:08:27;8.50;99.90
8664;DHT22;4369;47.842;13.096;2023-04-03T10:11:12;8.40;99.90
8664;DHT22;4369;47.842;13.096;2023-04-03T10:13:55;8.50;99.90
8664;DHT22;4369;47.842;13.096;2023-04-03T10:16:27;8.30;99.90
8664;DHT22;4369;47.842;13.096;2023-04-03T10:19:06;8.30;99.90
8664;DHT22;4369;47.842;13.096;2023-04-03T10:21:44;8.20;99.90
8664;DHT22;4369;47.842;13.096;2023-04-03T10:24:18;8.20;99.90
8664;DHT22;4369;47.842;13.096;2023-04-03T10:26:53;8.10;99.90
8664;DHT22;4369;47.842;13.096;2023-04-03T10:29:38;7.40;99.90
8664;DHT22;4369;47.842;13.096;2023-04-03T10:32:26;6.60;99.90
8664;DHT22;4369;47.842;13.096;2023-04-03T10:35:03;6.10;99.90
8664;DHT22;4369;47.842;13.096;2023-04-03T10:37:41;5.70;99.90
8664;DHT22;4369;47.842;13.096;2023-04-03T10:40:23;5.30;99.90
8664;DHT22;4369;47.842;13.096;2023-04-03T10:42:55;5.10;99.90
8664;DHT22;4369;47.842;13.096;2023-04-03T10:45:28;5.00;99.90
8664;DHT22;4369;47.842;13.096;2023-04-03T10:48:02;4.70;99.90
8664;DHT22;4369;47.842;13.096;2023-04-03T10:50:38;4.50;99.90
8664;DHT22;4369;47.842;13.096;2023-04-03T10:53:14;4.50;99.90
8664;DHT22;4369;47.842;13.096;2023-04-03T10:55:51;4.40;99.90
8664;DHT22;4369;47.842;13.096;2023-04-03T10:58:25;4.30;99.90
8664;DHT22;4369;47.842;13.096;2023-04-03T11:01:00;4.30;99.90
8664;DHT22;4369;47.842;13.096;2023-04-03T11:03:31;4.40;99.90
8664;DHT22;4369;47.842;13.096;2023-04-03T11:06:02;4.40;99.90
8664;DHT22;4369;47.842;13.096;2023-04-03T11:08:35;4.40;99.90
8664;DHT22;4369;47.842;13.096;2023-04-03T11:11:06;4.40;99.90
8664;DHT22;4369;47.842;13.096;2023-04-03T11:13:40;4.50;99.90
8664;DHT22;4369;47.842;13.096;2023-04-03T11:16:15;4.50;99.90
8664;DHT22;4369;47.842;13.096;2023-04-03T11:18:48;4.70;99.90
8664;DHT22;4369;47.842;13.096;2023-04-03T11:21:20;4.70;99.90
8664;DHT22;4369;47.842;13.096;2023-04-03T11:23:48;4.70;99.90
8664;DHT22;4369;47.842;13.096;2023-04-03T11:26:17;4.90;99.90
8664;DHT22;4369;47.842;13.096;2023-04-03T11:28:44;5.10;99.90
8664;DHT22;4369;47.842;13.096;2023-04-03T11:31:23;5.10;99.90
8664;DHT22;4369;47.842;13.096;2023-04-03T11:34:02;5.10;99.90
8664;DHT22;4369;47.842;13.096;2023-04-03T11:36:34;5.10;99.90
8664;DHT22;4369;47.842;13.096;2023-04-03T11:39:15;5.10;99.90
8664;DHT22;4369;47.842;13.096;2023-04-03T11:41:43;5.10;99.90
8664;DHT22;4369;47.842;13.096;2023-04-03T11:44:30;5.10;99.90
8664;DHT22;4369;47.842;13.096;2023-04-03T11:47:01;5.30;99.90
8664;DHT22;4369;47.842;13.096;2023-04-03T11:49:51;5.40;99.90
8664;DHT22;4369;47.842;13.096;2023-04-03T11:52:57;5.50;99.90
8664;DHT22;4369;47.842;13.096;2023-04-03T11:55:46;5.50;99.90
8664;DHT22;4369;47.842;13.096;2023-04-03T11:58:19;5.60;99.90
8664;DHT22;4369;47.842;13.096;2023-04-03T12:00:55;5.80;99.90
8664;DHT22;4369;47.842;13.096;2023-04-03T12:03:57;5.90;99.90
8664;DHT22;4369;47.842;13.096;2023-04-03T12:07:02;6.00;99.90
8664;DHT22;4369;47.842;13.096;2023-04-03T12:09:52;5.80;99.90
8664;DHT22;4369;47.842;13.096;2023-04-03T12:12:37;5.90;99.90
8664;DHT22;4369;47.842;13.096;2023-04-03T12:15:23;5.90;99.90
8664;DHT22;4369;47.842;13.096;2023-04-03T12:17:52;6.10;99.90
8664;DHT22;4369;47.842;13.096;2023-04-03T12:20:51;6.10;99.90
8664;DHT22;4369;47.842;13.096;2023-04-03T12:23:30;6.30;99.90
8664;DHT22;4369;47.842;13.096;2023-04-03T12:26:19;6.50;99.90
8664;DHT22;4369;47.842;13.096;2023-04-03T12:28:48;6.70;99.90
8664;DHT22;4369;47.842;13.096;2023-04-03T12:31:16;6.80;99.90
8664;DHT22;4369;47.842;13.096;2023-04-03T12:34:06;7.00;99.90
8664;DHT22;4369;47.842;13.096;2023-04-03T12:36:46;7.10;99.90
8664;DHT22;4369;47.842;13.096;2023-04-03T12:39:25;7.20;99.90
8664;DHT22;4369;47.842;13.096;2023-04-03T12:42:08;7.20;99.90
8664;DHT22;4369;47.842;13.096;2023-04-03T12:44:47;7.20;99.90
8664;DHT22;4369;47.842;13.096;2023-04-03T12:47:28;7.50;99.90
8664;DHT22;4369;47.842;13.096;2023-04-03T12:49:59;7.30;99.90
8664;DHT22;4369;47.842;13.096;2023-04-03T12:52:37;7.40;99.90
8664;DHT22;4369;47.842;13.096;2023-04-03T12:55:14;7.40;99.90
8664;DHT22;4369;47.842;13.096;2023-04-03T12:57:41;7.30;99.90
8664;DHT22;4369;47.842;13.096;2023-04-03T13:00:25;7.30;99.90
8664;DHT22;4369;47.842;13.096;2023-04-03T13:02:53;7.70;99.90
8664;DHT22;4369;47.842;13.096;2023-04-03T13:05:22;8.00;99.90
8664;DHT22;4369;47.842;13.096;2023-04-03T13:07:53;8.50;99.90
8664;DHT22;4369;47.842;13.096;2023-04-03T13:10:22;8.60;99.90
8664;DHT22;4369;47.842;13.096;2023-04-03T13:12:51;8.20;99.90
8664;DHT22;4369;47.842;13.096;2023-04-03T13:15:22;7.90;99.90
8664;DHT22;4369;47.842;13.096;2023-04-03T13:17:51;7.60;99.90
8664;DHT22;4369;47.842;13.096;2023-04-03T13:20:21;7.40;99.90
8664;DHT22;4369;47.842;13.096;2023-04-03T13:22:56;7.20;99.90
8664;DHT22;4369;47.842;13.096;2023-04-03T13:25:27;7.10;99.90
8664;DHT22;4369;47.842;13.096;2023-04-03T13:27:56;7.00;99.90
8664;DHT22;4369;47.842;13.096;2023-04-03T13:30:29;6.90;99.90
8664;DHT22;4369;47.842;13.096;2023-04-03T13:32:59;6.80;99.90
8664;DHT22;4369;47.842;13.096;2023-04-03T13:35:33;6.80;99.90
8664;DHT22;4369;47.842;13.096;2023-04-03T13:38:06;6.80;99.90
8664;DHT22;4369;47.842;13.096;2023-04-03T13:40:33;6.70;99.90
8664;DHT22;4369;47.842;13.096;2023-04-03T13:43:03;6.60;99.90
8664;DHT22;4369;47.842;13.096;2023-04-03T13:45:32;6.50;99.90
8664;DHT22;4369;47.842;13.096;2023-04-03T13:48:15;6.40;99.90
8664;DHT22;4369;47.842;13.096;2023-04-03T13:50:59;6.50;99.90
8664;DHT22;4369;47.842;13.096;2023-04-03T13:53:29;6.60;99.90
8664;DHT22;4369;47.842;13.096;2023-04-03T13:56:04;6.40;99.90
8664;DHT22;4369;47.842;13.096;2023-04-03T13:58:33;6.50;99.90
8664;DHT22;4369;47.842;13.096;2023-04-03T14:01:06;6.60;99.90
8664;DHT22;4369;47.842;13.096;2023-04-03T14:03:44;6.60;99.90
8664;DHT22;4369;47.842;13.096;2023-04-03T14:06:14;6.70;99.90
8664;DHT22;4369;47.842;13.096;2023-04-03T14:08:43;6.70;99.90
8664;DHT22;4369;47.842;13.096;2023-04-03T14:11:13;6.90;99.90
8664;DHT22;4369;47.842;13.096;2023-04-03T14:13:42;7.30;99.90
8664;DHT22;4369;47.842;13.096;2023-04-03T14:16:13;7.60;99.90
8664;DHT22;4369;47.842;13.096;2023-04-03T14:18:40;8.30;99.60
8664;DHT22;4369;47.842;13.096;2023-04-03T14:21:10;9.20;98.50
8664;DHT22;4369;47.842;13.096;2023-04-03T14:23:37;9.00;96.00
8664;DHT22;4369;47.842;13.096;2023-04-03T14:26:10;8.60;95.80
8664;DHT22;4369;47.842;13.096;2023-04-03T14:28:38;8.30;95.00
8664;DHT22;4369;47.842;13.096;2023-04-03T14:31:08;8.30;98.20
8664;DHT22;4369;47.842;13.096;2023-04-03T14:33:37;8.50;93.10
8664;DHT22;4369;47.842;13.096;2023-04-03T14:36:12;9.30;93.10
8664;DHT22;4369;47.842;13.096;2023-04-03T14:38:40;9.20;91.30
8664;DHT22;4369;47.842;13.096;2023-04-03T14:41:10;9.20;94.30
8664;DHT22;4369;47.842;13.096;2023-04-03T14:43:39;9.00;94.30
8664;DHT22;4369;47.842;13.096;2023-04-03T14:46:12;8.60;93.50
8664;DHT22;4369;47.842;13.096;2023-04-03T14:48:39;8.30;93.40
8664;DHT22;4369;47.842;13.096;2023-04-03T14:51:06;8.00;93.20
8664;DHT22;4369;47.842;13.096;2023-04-03T14:53:33;7.70;95.80
8664;DHT22;4369;47.842;13.096;2023-04-03T14:56:00;7.60;98.40
8664;DHT22;4369;47.842;13.096;2023-04-03T14:58:28;7.30;99.90
8664;DHT22;4369;47.842;13.096;2023-04-03T15:00:55;7.10;99.90
8664;DHT22;4369;47.842;13.096;2023-04-03T15:03:22;7.00;99.90
8664;DHT22;4369;47.842;13.096;2023-04-03T15:05:49;6.90;99.90
8664;DHT22;4369;47.842;13.096;2023-04-03T15:08:21;6.70;99.90
8664;DHT22;4369;47.842;13.096;2023-04-03T15:10:49;6.70;99.90
8664;DHT22;4369;47.842;13.096;2023-04-03T15:13:19;6.60;99.90
8664;DHT22;4369;47.842;13.096;2023-04-03T15:15:48;6.40;99.90
8664;DHT22;4369;47.842;13.096;2023-04-03T15:18:17;6.40;99.90
8664;DHT22;4369;47.842;13.096;2023-04-03T15:20:45;6.30;99.90
8664;DHT22;4369;47.842;13.096;2023-04-03T15:23:14;6.30;99.90
8664;DHT22;4369;47.842;13.096;2023-04-03T15:25:42;6.30;99.90
8664;DHT22;4369;47.842;13.096;2023-04-03T15:28:15;6.50;99.90
8664;DHT22;4369;47.842;13.096;2023-04-03T15:30:44;6.50;99.90
8664;DHT22;4369;47.842;13.096;2023-04-03T15:33:12;6.50;99.90
8664;DHT22;4369;47.842;13.096;2023-04-03T15:35:39;6.70;99.90
8664;DHT22;4369;47.842;13.096;2023-04-03T15:38:06;6.70;99.90
8664;DHT22;4369;47.842;13.096;2023-04-03T15:40:33;6.80;99.90
8664;DHT22;4369;47.842;13.096;2023-04-03T15:43:00;6.80;99.90
8664;DHT22;4369;47.842;13.096;2023-04-03T15:45:29;6.80;99.90
8664;DHT22;4369;47.842;13.096;2023-04-03T15:47:57;6.80;99.90
8664;DHT22;4369;47.842;13.096;2023-04-03T15:50:25;6.80;99.90
8664;DHT22;4369;47.842;13.096;2023-04-03T15:52:52;6.50;99.40
8664;DHT22;4369;47.842;13.096;2023-04-03T15:55:20;6.30;99.90
8664;DHT22;4369;47.842;13.096;2023-04-03T15:57:47;6.30;99.80
8664;DHT22;4369;47.842;13.096;2023-04-03T16:00:15;6.10;97.40
8664;DHT22;4369;47.842;13.096;2023-04-03T16:02:43;6.00;97.00
8664;DHT22;4369;47.842;13.096;2023-04-03T16:05:10;6.10;98.70
8664;DHT22;4369;47.842;13.096;2023-04-03T16:07:39;6.00;99.30
8664;DHT22;4369;47.842;13.096;2023-04-03T16:10:07;6.00;99.90
8664;DHT22;4369;47.842;13.096;2023-04-03T16:12:35;6.00;99.90
8664;DHT22;4369;47.842;13.096;2023-04-03T16:15:03;5.80;99.90
8664;DHT22;4369;47.842;13.096;2023-04-03T16:17:31;5.80;99.90
8664;DHT22;4369;47.842;13.096;2023-04-03T16:19:59;5.80;99.90
8664;DHT22;4369;47.842;13.096;2023-04-03T16:22:27;5.60;98.40
8664;DHT22;4369;47.842;13.096;2023-04-03T16:24:56;5.60;99.20